createdAt,value
2023-03-29T00:01:57.634Z,1.95
2023-03-29T00:04:34.332Z,1.94
2023-03-29T00:07:07.298Z,1.94
2023-03-29T00:09:39.590Z,1.95
2023-03-29T00:12:12.325Z,1.93
2023-03-29T00:14:44.647Z,1.93
2023-03-29T00:17:17.125Z,1.94
2023-03-29T00:19:49.524Z,1.93
2023-03-29T00:22:22.077Z,1.91
2023-03-29T00:24:56.362Z,1.89
2023-03-29T00:27:29.332Z,1.88
2023-03-29T00:30:02.728Z,1.89
2023-03-29T00:32:35.230Z,1.91
2023-03-29T00:35:09.198Z,1.91
2023-03-29T00:37:41.521Z,1.88
2023-03-29T00:40:16.121Z,1.87
2023-03-29T00:42:48.659Z,1.88
2023-03-29T00:45:23.171Z,1.88
2023-03-29T00:48:00.116Z,1.87
2023-03-29T00:50:39.500Z,1.86
2023-03-29T00:53:15.196Z,1.86
2023-03-29T00:55:54.184Z,1.88
2023-03-29T00:58:32.216Z,1.89
2023-03-29T01:01:11.023Z,1.90
2023-03-29T01:03:49.546Z,1.91
2023-03-29T01:06:26.147Z,1.91
2023-03-29T01:09:02.300Z,1.90
2023-03-29T01:11:43.211Z,1.89
2023-03-29T01:14:23.881Z,1.87
2023-03-29T01:16:56.482Z,1.84
2023-03-29T01:19:33.734Z,1.85
2023-03-29T01:22:17.566Z,1.84
2023-03-29T01:25:04.085Z,1.84
2023-03-29T01:27:57.372Z,1.82
2023-03-29T01:30:34.681Z,1.81
2023-03-29T01:33:11.885Z,1.82
2023-03-29T01:35:50.294Z,1.81
2023-03-29T01:38:29.002Z,1.79
2023-03-29T01:41:03.998Z,1.74
2023-03-29T01:43:37.667Z,1.73
2023-03-29T01:46:15.616Z,1.70
2023-03-29T01:48:53.192Z,1.69
2023-03-29T01:51:33.238Z,1.69
2023-03-29T01:54:08.987Z,1.71
2023-03-29T01:56:45.055Z,1.73
2023-03-29T01:59:20.345Z,1.73
2023-03-29T02:01:56.687Z,1.74
2023-03-29T02:04:37.232Z,1.74
2023-03-29T02:07:11.747Z,1.77
2023-03-29T02:09:45.099Z,1.75
2023-03-29T02:12:18.464Z,1.71
2023-03-29T02:14:50.995Z,1.70
2023-03-29T02:17:25.212Z,1.68
2023-03-29T02:20:01.784Z,1.69
2023-03-29T02:22:43.002Z,1.69
2023-03-29T02:25:15.758Z,1.66
2023-03-29T02:27:48.578Z,1.66
2023-03-29T02:30:22.634Z,1.68
2023-03-29T02:33:02.339Z,1.69
2023-03-29T02:35:40.962Z,1.69
2023-03-29T02:38:14.783Z,1.69
2023-03-29T02:40:48.441Z,1.66
2023-03-29T02:43:25.885Z,1.66
2023-03-29T02:45:59.098Z,1.66
2023-03-29T02:48:33.178Z,1.68
2023-03-29T02:51:13.601Z,1.68
2023-03-29T02:53:52.113Z,1.67
2023-03-29T02:56:25.130Z,1.67
2023-03-29T02:58:57.514Z,1.67
2023-03-29T03:01:29.984Z,1.68
2023-03-29T03:04:02.496Z,1.66
2023-03-29T03:06:36.702Z,1.64
2023-03-29T03:09:10.184Z,1.64
2023-03-29T03:11:45.851Z,1.63
2023-03-29T03:14:18.884Z,1.63
2023-03-29T03:16:52.918Z,1.60
2023-03-29T03:19:25.982Z,1.61
2023-03-29T03:21:58.430Z,1.60
2023-03-29T03:24:32.664Z,1.59
2023-03-29T03:27:06.360Z,1.57
2023-03-29T03:29:39.361Z,1.55
2023-03-29T03:32:17.597Z,1.53
2023-03-29T03:34:58.995Z,1.51
2023-03-29T03:37:31.716Z,1.51
2023-03-29T03:40:09.045Z,1.48
2023-03-29T03:42:41.810Z,1.46
2023-03-29T03:45:14.801Z,1.43
2023-03-29T03:48:11.776Z,1.39
2023-03-29T03:51:07.048Z,1.34
2023-03-29T03:53:40.499Z,1.31
2023-03-29T03:56:18.537Z,1.30
2023-03-29T03:59:09.579Z,1.28
2023-03-29T04:01:52.906Z,1.26
2023-03-29T04:04:25.930Z,1.26
2023-03-29T04:07:19.572Z,1.27
2023-03-29T04:10:23.944Z,1.26
2023-03-29T04:13:02.455Z,1.27
2023-03-29T04:15:38.730Z,1.30
2023-03-29T04:18:13.513Z,1.30
2023-03-29T04:20:50.901Z,1.31
2023-03-29T04:23:24.577Z,1.32
2023-03-29T04:25:58.239Z,1.34
2023-03-29T04:29:05.972Z,1.33
2023-03-29T04:31:46.622Z,1.31
2023-03-29T04:34:47.518Z,1.26
2023-03-29T04:37:22.093Z,1.23
2023-03-29T04:39:55.846Z,1.18
2023-03-29T04:42:28.661Z,1.17
2023-03-29T04:45:01.342Z,1.15
2023-03-29T04:47:49.581Z,1.15
2023-03-29T04:50:24.335Z,1.14
2023-03-29T04:53:00.344Z,1.14
2023-03-29T04:55:33.340Z,1.16
2023-03-29T04:58:06.935Z,1.18
2023-03-29T05:00:40.539Z,1.23
2023-03-29T05:03:18.728Z,1.27
2023-03-29T05:06:13.013Z,1.31
2023-03-29T05:08:45.367Z,1.31
2023-03-29T05:11:31.715Z,1.30
2023-03-29T05:14:07.433Z,1.29
2023-03-29T05:16:41.074Z,1.29
2023-03-29T05:19:14.055Z,1.30
2023-03-29T05:21:51.068Z,1.32
2023-03-29T05:24:26.347Z,1.34
2023-03-29T05:27:08.197Z,1.37
2023-03-29T05:29:42.016Z,1.39
2023-03-29T05:32:39.259Z,1.45
2023-03-29T05:35:12.960Z,1.48
2023-03-29T05:37:47.377Z,1.51
2023-03-29T05:40:20.317Z,1.55
2023-03-29T05:43:18.581Z,1.60
2023-03-29T05:45:53.330Z,1.66
2023-03-29T05:48:25.264Z,1.72
2023-03-29T05:50:59.125Z,1.77
2023-03-29T05:53:32.327Z,1.83
2023-03-29T05:56:05.544Z,1.87
2023-03-29T05:58:38.336Z,1.93
2023-03-29T06:01:15.016Z,1.99
2023-03-29T06:03:59.439Z,2.07
2023-03-29T06:06:41.865Z,2.18
2023-03-29T06:09:14.183Z,2.28
2023-03-29T06:12:16.237Z,2.38
2023-03-29T06:14:58.324Z,2.48
2023-03-29T06:17:40.946Z,2.56
2023-03-29T06:20:15.085Z,2.60
2023-03-29T06:22:49.638Z,2.68
2023-03-29T06:25:22.712Z,2.78
2023-03-29T06:27:55.430Z,2.85
2023-03-29T06:30:27.960Z,2.95
2023-03-29T06:33:02.873Z,3.05
2023-03-29T06:36:04.626Z,3.18
2023-03-29T06:38:37.374Z,3.29
2023-03-29T06:41:24.848Z,3.42
2023-03-29T06:44:17.491Z,3.52
2023-03-29T06:47:03.923Z,3.62
2023-03-29T06:49:36.430Z,3.72
2023-03-29T06:52:15.925Z,3.80
2023-03-29T06:54:50.602Z,3.88
2023-03-29T06:57:23.907Z,3.98
2023-03-29T06:59:56.310Z,4.06
2023-03-29T07:02:35.952Z,4.18
2023-03-29T07:05:17.913Z,4.31
2023-03-29T07:08:00.471Z,4.47
2023-03-29T07:10:49.806Z,4.62
2023-03-29T07:13:42.749Z,4.75
2023-03-29T07:16:16.358Z,4.86
2023-03-29T07:19:16.196Z,4.95
2023-03-29T07:22:01.204Z,5.07
2023-03-29T07:24:45.087Z,5.23
2023-03-29T07:27:18.310Z,5.35
2023-03-29T07:29:54.038Z,5.45
2023-03-29T07:32:28.160Z,5.55
2023-03-29T07:35:09.991Z,5.66
2023-03-29T07:37:43.047Z,5.78
2023-03-29T07:40:23.633Z,5.88
2023-03-29T07:43:03.158Z,5.98
2023-03-29T07:45:37.922Z,6.04
2023-03-29T07:48:14.765Z,6.13
2023-03-29T07:50:58.839Z,6.27
2023-03-29T07:53:35.612Z,6.41
2023-03-29T07:56:10.989Z,6.44
2023-03-29T07:58:56.167Z,6.49
2023-03-29T08:01:28.586Z,6.57
2023-03-29T08:04:11.346Z,6.64
2023-03-29T08:07:12.755Z,6.74
2023-03-29T08:10:15.422Z,6.80
2023-03-29T08:13:05.011Z,6.91
2023-03-29T08:15:46.395Z,6.97
2023-03-29T08:18:28.195Z,7.05
2023-03-29T08:21:00.857Z,7.04
2023-03-29T08:23:33.755Z,7.07
2023-03-29T08:26:25.921Z,7.17
2023-03-29T08:28:58.499Z,7.16
2023-03-29T08:31:33.728Z,7.15
2023-03-29T08:34:06.549Z,7.21
2023-03-29T08:36:55.852Z,7.28
2023-03-29T08:39:43.497Z,7.35
2023-03-29T08:43:03.469Z,7.39
2023-03-29T08:45:54.933Z,7.41
2023-03-29T08:48:30.099Z,7.41
2023-03-29T08:51:03.805Z,7.40
2023-03-29T08:53:44.224Z,7.35
2023-03-29T08:56:28.672Z,7.36
2023-03-29T08:59:30.475Z,7.39
2023-03-29T09:02:07.188Z,7.43
2023-03-29T09:04:42.594Z,7.45
2023-03-29T09:07:35.266Z,7.55
2023-03-29T09:10:13.657Z,7.66
2023-03-29T09:12:58.087Z,7.81
2023-03-29T09:15:38.999Z,7.95
2023-03-29T09:18:31.548Z,8.10
2023-03-29T09:21:12.948Z,8.17
2023-03-29T09:24:01.266Z,8.25
2023-03-29T09:26:54.771Z,8.37
2023-03-29T09:29:48.887Z,8.47
2023-03-29T09:32:30.093Z,8.52
2023-03-29T09:35:18.364Z,8.57
2023-03-29T09:37:54.363Z,8.54
2023-03-29T09:40:34.379Z,8.53
2023-03-29T09:43:18.442Z,8.60
2023-03-29T09:45:55.219Z,8.71
2023-03-29T09:48:31.019Z,8.77
2023-03-29T09:51:06.050Z,8.81
2023-03-29T09:53:38.638Z,8.86
2023-03-29T09:56:37.913Z,8.92
2023-03-29T09:59:15.245Z,8.94
2023-03-29T10:01:47.719Z,8.90
2023-03-29T10:04:22.333Z,8.87
2023-03-29T10:07:01.511Z,8.86
2023-03-29T10:09:35.364Z,8.86
2023-03-29T10:12:23.165Z,8.91
2023-03-29T10:14:56.634Z,8.96
2023-03-29T10:17:33.340Z,8.94
2023-03-29T10:20:14.516Z,8.98
2023-03-29T10:22:56.261Z,9.10
2023-03-29T10:25:31.350Z,9.20
2023-03-29T10:28:07.086Z,9.33
2023-03-29T10:30:39.176Z,9.40
2023-03-29T10:33:19.931Z,9.46
2023-03-29T10:35:53.416Z,9.48
2023-03-29T10:38:29.031Z,9.53
2023-03-29T10:41:11.174Z,9.56
2023-03-29T10:43:49.509Z,9.68
2023-03-29T10:46:31.242Z,9.75
2023-03-29T10:49:10.280Z,9.80
2023-03-29T10:51:48.174Z,9.79
2023-03-29T10:54:24.302Z,9.81
2023-03-29T10:56:59.148Z,9.86
2023-03-29T10:59:36.456Z,9.92
2023-03-29T11:02:34.141Z,9.99
2023-03-29T11:05:33.393Z,10.02
2023-03-29T11:08:29.754Z,10.01
2023-03-29T11:11:16.281Z,9.99
2023-03-29T11:13:59.422Z,10.06
2023-03-29T11:16:40.480Z,10.15
2023-03-29T11:19:39.840Z,10.16
2023-03-29T11:22:21.441Z,10.15
2023-03-29T11:25:14.031Z,10.14
2023-03-29T11:27:56.472Z,10.19
2023-03-29T11:30:36.962Z,10.22
2023-03-29T11:33:19.399Z,10.32
2023-03-29T11:36:01.819Z,10.41
2023-03-29T11:38:42.301Z,10.38
2023-03-29T11:41:20.245Z,10.35
2023-03-29T11:43:56.353Z,10.41
2023-03-29T11:46:32.757Z,10.41
2023-03-29T11:49:11.268Z,10.41
2023-03-29T11:51:47.246Z,10.44
2023-03-29T11:54:24.924Z,10.47
2023-03-29T11:57:01.855Z,10.49
2023-03-29T11:59:38.746Z,10.52
2023-03-29T12:02:19.836Z,10.54
2023-03-29T12:04:56.978Z,10.57
2023-03-29T12:07:36.344Z,10.58
2023-03-29T12:10:17.456Z,10.57
2023-03-29T12:12:56.947Z,10.60
2023-03-29T12:15:33.806Z,10.63
2023-03-29T12:18:16.006Z,10.68
2023-03-29T12:20:54.338Z,10.67
2023-03-29T12:23:27.564Z,10.68
2023-03-29T12:26:07.091Z,10.67
2023-03-29T12:29:05.629Z,10.65
2023-03-29T12:31:45.848Z,10.65
2023-03-29T12:34:44.885Z,10.71
2023-03-29T12:37:47.064Z,10.76
2023-03-29T12:40:44.174Z,10.75
2023-03-29T12:43:38.832Z,10.75
2023-03-29T12:46:35.933Z,10.67
2023-03-29T12:49:15.886Z,10.60
2023-03-29T12:51:48.768Z,10.62
2023-03-29T12:54:28.038Z,10.68
2023-03-29T12:57:03.681Z,10.71
2023-03-29T12:59:44.950Z,10.73
2023-03-29T13:02:37.287Z,10.77
2023-03-29T13:05:31.212Z,10.84
2023-03-29T13:08:20.920Z,10.87
2023-03-29T13:10:57.602Z,10.84
2023-03-29T13:13:35.069Z,10.79
2023-03-29T13:16:19.888Z,10.73
2023-03-29T13:19:06.776Z,10.58
2023-03-29T13:21:54.515Z,10.46
2023-03-29T13:24:41.223Z,10.44
2023-03-29T13:27:26.334Z,10.40
2023-03-29T13:30:20.933Z,10.33
2023-03-29T13:33:05.616Z,10.26
2023-03-29T13:35:46.988Z,10.18
2023-03-29T13:38:23.717Z,10.07
2023-03-29T13:41:04.523Z,9.98
2023-03-29T13:43:52.580Z,9.89
2023-03-29T13:46:36.589Z,9.78
2023-03-29T13:49:16.652Z,9.67
2023-03-29T13:52:07.225Z,9.56
2023-03-29T13:54:44.004Z,9.53
2023-03-29T13:57:20.704Z,9.50
2023-03-29T14:00:01.450Z,9.49
2023-03-29T14:02:49.410Z,9.47
2023-03-29T14:05:26.066Z,9.42
2023-03-29T14:08:03.059Z,9.38
2023-03-29T14:10:40.433Z,9.34
2023-03-29T14:13:16.280Z,9.33
2023-03-29T14:15:54.253Z,9.32
2023-03-29T14:18:29.167Z,9.30
2023-03-29T14:21:02.875Z,9.30
2023-03-29T14:23:38.088Z,9.30
2023-03-29T14:26:15.814Z,9.30
2023-03-29T14:28:50.675Z,9.31
2023-03-29T14:31:22.371Z,9.32
2023-03-29T14:34:00.498Z,9.32
2023-03-29T14:36:34.418Z,9.34
2023-03-29T14:39:12.561Z,9.33
2023-03-29T14:41:49.725Z,9.35
2023-03-29T14:44:26.048Z,9.30
2023-03-29T14:46:59.041Z,9.27
2023-03-29T14:49:33.019Z,9.24
2023-03-29T14:52:05.531Z,9.19
2023-03-29T14:54:38.077Z,9.15
2023-03-29T14:57:14.617Z,9.11
2023-03-29T14:59:55.841Z,9.09
2023-03-29T15:02:30.963Z,9.09
2023-03-29T15:05:05.250Z,9.08
2023-03-29T15:07:39.971Z,9.09
2023-03-29T15:10:20.879Z,9.08
2023-03-29T15:12:54.768Z,9.09
2023-03-29T15:15:28.335Z,9.10
2023-03-29T15:18:01.443Z,9.13
2023-03-29T15:20:38.037Z,9.15
2023-03-29T15:23:23.202Z,9.14
2023-03-29T15:25:58.783Z,9.12
2023-03-29T15:28:34.841Z,9.09
2023-03-29T15:31:14.209Z,9.05
2023-03-29T15:33:46.823Z,8.99
2023-03-29T15:36:19.236Z,8.97
2023-03-29T15:38:51.705Z,8.94
2023-03-29T15:41:24.225Z,8.92
2023-03-29T15:43:57.648Z,8.90
2023-03-29T15:46:29.956Z,8.89
2023-03-29T15:49:02.331Z,8.87
2023-03-29T15:51:34.984Z,8.85
2023-03-29T15:54:08.015Z,8.83
2023-03-29T15:56:48.057Z,8.83
2023-03-29T15:59:20.646Z,8.82
2023-03-29T16:01:54.593Z,8.82
2023-03-29T16:04:27.729Z,8.81
2023-03-29T16:07:00.581Z,8.80
2023-03-29T16:09:32.921Z,8.81
2023-03-29T16:12:05.509Z,8.80
2023-03-29T16:14:37.961Z,8.81
2023-03-29T16:17:10.247Z,8.85
2023-03-29T16:19:42.626Z,8.84
2023-03-29T16:22:15.024Z,8.81
2023-03-29T16:24:47.274Z,8.81
2023-03-29T16:27:19.552Z,8.79
2023-03-29T16:29:51.871Z,8.80
2023-03-29T16:32:24.489Z,8.82
2023-03-29T16:34:58.497Z,8.84
2023-03-29T16:37:30.892Z,8.81
2023-03-29T16:40:07.393Z,8.79
2023-03-29T16:42:39.670Z,8.74
2023-03-29T16:45:15.661Z,8.70
2023-03-29T16:47:48.990Z,8.69
2023-03-29T16:50:23.109Z,8.65
2023-03-29T16:52:55.487Z,8.62
2023-03-29T16:55:28.527Z,8.59
2023-03-29T16:58:00.980Z,8.58
2023-03-29T17:00:33.952Z,8.56
2023-03-29T17:03:06.898Z,8.55
2023-03-29T17:05:41.723Z,8.53
2023-03-29T17:08:12.563Z,8.53
2023-03-29T17:10:45.435Z,8.50
2023-03-29T17:13:17.852Z,8.46
2023-03-29T17:15:52.355Z,8.43
2023-03-29T17:18:26.721Z,8.41
2023-03-29T17:21:01.699Z,8.39
2023-03-29T17:23:33.967Z,8.36
2023-03-29T17:26:07.174Z,8.34
2023-03-29T17:28:39.439Z,8.31
2023-03-29T17:31:11.824Z,8.29
2023-03-29T17:33:44.254Z,8.28
2023-03-29T17:36:16.602Z,8.27
2023-03-29T17:38:48.944Z,8.26
2023-03-29T17:41:21.540Z,8.26
2023-03-29T17:43:53.892Z,8.24
2023-03-29T17:46:26.408Z,8.24
2023-03-29T17:48:59.283Z,8.22
2023-03-29T17:51:31.605Z,8.20
2023-03-29T17:54:04.073Z,8.19
2023-03-29T17:56:36.331Z,8.18
2023-03-29T17:59:08.603Z,8.16
2023-03-29T18:01:41.059Z,8.14
2023-03-29T18:04:13.849Z,8.13
2023-03-29T18:06:46.902Z,8.13
2023-03-29T18:09:19.301Z,8.09
2023-03-29T18:11:51.606Z,8.07
2023-03-29T18:14:23.871Z,8.05
2023-03-29T18:16:57.147Z,8.05
2023-03-29T18:19:29.823Z,8.02
2023-03-29T18:22:02.086Z,8.00
2023-03-29T18:24:34.506Z,8.00
2023-03-29T18:27:06.839Z,8.00
2023-03-29T18:29:40.322Z,7.99
2023-03-29T18:32:12.856Z,7.99
2023-03-29T18:34:45.473Z,7.97
2023-03-29T18:37:17.780Z,7.97
2023-03-29T18:39:50.290Z,7.96
2023-03-29T18:42:22.765Z,7.94
2023-03-29T18:44:55.155Z,7.92
2023-03-29T18:47:27.741Z,7.92
2023-03-29T18:49:59.968Z,7.91
2023-03-29T18:52:32.334Z,7.89
2023-03-29T18:55:04.832Z,7.87
2023-03-29T18:57:37.238Z,7.86
2023-03-29T19:00:13.102Z,7.81
2023-03-29T19:02:45.787Z,7.78
2023-03-29T19:05:18.626Z,7.76
2023-03-29T19:07:51.269Z,7.75
2023-03-29T19:10:24.799Z,7.75
2023-03-29T19:12:57.107Z,7.74
2023-03-29T19:15:29.602Z,7.73
2023-03-29T19:18:01.980Z,7.71
2023-03-29T19:20:35.672Z,7.69
2023-03-29T19:23:08.117Z,7.69
2023-03-29T19:25:40.395Z,7.68
2023-03-29T19:28:12.960Z,7.68
2023-03-29T19:30:45.203Z,7.68
2023-03-29T19:33:18.558Z,7.66
2023-03-29T19:35:52.534Z,7.66
2023-03-29T19:38:24.867Z,7.66
2023-03-29T19:40:57.271Z,7.66
2023-03-29T19:43:30.117Z,7.65
2023-03-29T19:46:10.500Z,7.62
2023-03-29T19:48:43.117Z,7.60
2023-03-29T19:51:15.639Z,7.58
2023-03-29T19:53:48.017Z,7.53
2023-03-29T19:56:20.246Z,7.51
2023-03-29T19:58:52.823Z,7.51
2023-03-29T20:01:27.173Z,7.51
2023-03-29T20:03:59.955Z,7.51
2023-03-29T20:06:32.257Z,7.50
2023-03-29T20:09:05.320Z,7.48
2023-03-29T20:11:37.724Z,7.48
2023-03-29T20:14:10.019Z,7.48
2023-03-29T20:16:44.168Z,7.47
2023-03-29T20:19:24.629Z,7.46
2023-03-29T20:21:57.439Z,7.45
2023-03-29T20:24:31.454Z,7.44
2023-03-29T20:27:04.703Z,7.43
2023-03-29T20:29:36.998Z,7.42
2023-03-29T20:32:09.499Z,7.42
2023-03-29T20:34:41.955Z,7.41
2023-03-29T20:37:14.755Z,7.40
2023-03-29T20:39:47.037Z,7.39
2023-03-29T20:42:24.678Z,7.38
2023-03-29T20:44:57.225Z,7.36
2023-03-29T20:47:29.662Z,7.33
2023-03-29T20:50:04.240Z,7.31
2023-03-29T20:52:37.258Z,7.32
2023-03-29T20:55:12.558Z,7.32
2023-03-29T20:57:44.908Z,7.28
2023-03-29T21:00:19.799Z,7.26
2023-03-29T21:02:55.273Z,7.25
2023-03-29T21:05:28.954Z,7.25
2023-03-29T21:08:01.598Z,7.22
2023-03-29T21:10:36.608Z,7.20
2023-03-29T21:13:12.046Z,7.19
2023-03-29T21:15:44.422Z,7.17
2023-03-29T21:18:16.915Z,7.16
2023-03-29T21:20:50.014Z,7.13
2023-03-29T21:23:23.173Z,7.12
2023-03-29T21:25:56.978Z,7.11
2023-03-29T21:28:29.249Z,7.10
2023-03-29T21:31:05.211Z,7.08
2023-03-29T21:33:38.908Z,7.07
2023-03-29T21:36:12.864Z,7.09
2023-03-29T21:38:45.133Z,7.08
2023-03-29T21:41:18.032Z,7.09
2023-03-29T21:43:50.727Z,7.10
2023-03-29T21:46:24.732Z,7.13
2023-03-29T21:48:57.146Z,7.12
2023-03-29T21:51:29.501Z,7.11
2023-03-29T21:54:01.758Z,7.12
2023-03-29T21:56:33.993Z,7.12
2023-03-29T21:59:06.505Z,7.10
2023-03-29T22:01:39.121Z,7.09
2023-03-29T22:04:13.193Z,7.09
2023-03-29T22:06:50.112Z,7.06
2023-03-29T22:09:22.386Z,7.06
2023-03-29T22:11:54.744Z,7.07
2023-03-29T22:14:29.427Z,7.07
2023-03-29T22:17:01.909Z,7.08
2023-03-29T22:19:34.271Z,7.08
2023-03-29T22:22:07.330Z,7.06
2023-03-29T22:24:39.681Z,7.05
2023-03-29T22:27:12.892Z,7.03
2023-03-29T22:29:45.375Z,7.01
2023-03-29T22:32:17.863Z,7.01
2023-03-29T22:34:50.274Z,6.99
2023-03-29T22:37:23.003Z,6.99
2023-03-29T22:39:55.863Z,7.02
2023-03-29T22:42:28.155Z,7.01
2023-03-29T22:45:00.513Z,7.00
2023-03-29T22:47:33.242Z,6.98
2023-03-29T22:50:06.330Z,6.96
2023-03-29T22:52:38.676Z,6.97
2023-03-29T22:55:12.754Z,6.94
2023-03-29T22:57:45.169Z,6.93
2023-03-29T23:00:18.744Z,6.94
2023-03-29T23:02:51.363Z,6.93
2023-03-29T23:05:23.825Z,6.93
2023-03-29T23:07:56.441Z,6.91
2023-03-29T23:10:30.624Z,6.91
2023-03-29T23:13:09.605Z,6.92
2023-03-29T23:15:47.376Z,6.91
2023-03-29T23:18:21.575Z,6.87
2023-03-29T23:20:56.665Z,6.85
2023-03-29T23:23:29.991Z,6.83
2023-03-29T23:26:02.583Z,6.83
2023-03-29T23:28:35.433Z,6.83
2023-03-29T23:31:10.681Z,6.83
2023-03-29T23:33:43.953Z,6.82
2023-03-29T23:36:18.762Z,6.82
2023-03-29T23:38:51.469Z,6.82
2023-03-29T23:41:28.230Z,6.81
2023-03-29T23:44:00.615Z,6.82
2023-03-29T23:46:33.650Z,6.82
2023-03-29T23:49:06.098Z,6.81
2023-03-29T23:51:39.263Z,6.82
2023-03-29T23:54:12.140Z,6.84
2023-03-29T23:56:44.597Z,6.84
2023-03-29T23:59:16.956Z,6.82
